sensor_id;sensor_type;location;lat;lon;timestamp;pressure;altitude;pressure_sealevel;temperature;humidity
59289;BME280;45056;47.602;9.886;2023-07-24T00:01:09;92476.53;;;22.23;45.53
59289;BME280;45056;47.602;9.886;2023-07-24T00:03:37;92460.13;;;22.25;45.38
59289;BME280;45056;47.602;9.886;2023-07-24T00:06:05;92469.38;;;22.28;45.25
59289;BME280;45056;47.602;9.886;2023-07-24T00:08:33;92469.38;;;22.28;45.30
59289;BME280;45056;47.602;9.886;2023-07-24T00:11:01;92459.28;;;22.30;45.02
59289;BME280;45056;47.602;9.886;2023-07-24T00:13:31;92455.44;;;22.33;44.67
59289;BME280;45056;47.602;9.886;2023-07-24T00:16:06;92452.38;;;22.37;44.54
59289;BME280;45056;47.602;9.886;2023-07-24T00:18:35;92450.53;;;22.40;44.44
59289;BME280;45056;47.602;9.886;2023-07-24T00:21:03;92448.75;;;22.42;44.28
59289;BME280;45056;47.602;9.886;2023-07-24T00:23:31;92447.47;;;22.43;44.16
59289;BME280;45056;47.602;9.886;2023-07-24T00:25:59;92448.44;;;22.46;44.14
59289;BME280;45056;47.602;9.886;2023-07-24T00:28:27;92442.38;;;22.47;43.94
59289;BME280;45056;47.602;9.886;2023-07-24T00:30:55;92438.53;;;22.51;43.77
59289;BME280;45056;47.602;9.886;2023-07-24T00:33:24;92443.56;;;22.52;43.64
59289;BME280;45056;47.602;9.886;2023-07-24T00:35:55;92442.28;;;22.53;43.34
59289;BME280;45056;47.602;9.886;2023-07-24T00:38:24;92436.94;;;22.55;43.20
59289;BME280;45056;47.602;9.886;2023-07-24T00:40:52;92434.91;;;22.56;43.37
59289;BME280;45056;47.602;9.886;2023-07-24T00:43:20;92430.84;;;22.57;43.17
59289;BME280;45056;47.602;9.886;2023-07-24T00:45:48;92428.84;;;22.57;43.20
59289;BME280;45056;47.602;9.886;2023-07-24T00:48:17;92428.28;;;22.59;43.06
59289;BME280;45056;47.602;9.886;2023-07-24T00:50:47;92430.34;;;22.58;43.17
59289;BME280;45056;47.602;9.886;2023-07-24T00:53:17;92423.50;;;22.59;43.23
59289;BME280;45056;47.602;9.886;2023-07-24T00:55:47;92426.28;;;22.59;42.91
59289;BME280;45056;47.602;9.886;2023-07-24T00:58:16;92419.25;;;22.58;42.97
59289;BME280;45056;47.602;9.886;2023-07-24T01:00:45;92415.19;;;22.59;42.72
59289;BME280;45056;47.602;9.886;2023-07-24T01:03:13;92422.22;;;22.60;42.75
59289;BME280;45056;47.602;9.886;2023-07-24T01:05:41;92415.41;;;22.61;42.58
59289;BME280;45056;47.602;9.886;2023-07-24T01:08:11;92422.44;;;22.62;42.54
59289;BME280;45056;47.602;9.886;2023-07-24T01:10:39;92426.72;;;22.63;42.43
59289;BME280;45056;47.602;9.886;2023-07-24T01:13:14;92429.47;;;22.63;42.26
59289;BME280;45056;47.602;9.886;2023-07-24T01:15:55;92434.50;;;22.65;42.06
59289;BME280;45056;47.602;9.886;2023-07-24T01:18:30;92433.97;;;22.67;42.10
59289;BME280;45056;47.602;9.886;2023-07-24T01:21:00;92446.75;;;22.70;42.26
59289;BME280;45056;47.602;9.886;2023-07-24T01:23:48;92451.22;;;22.73;42.10
59289;BME280;45056;47.602;9.886;2023-07-24T01:26:25;92451.66;;;22.77;42.07
59289;BME280;45056;47.602;9.886;2023-07-24T01:28:53;92442.50;;;22.82;41.97
59289;BME280;45056;47.602;9.886;2023-07-24T01:31:21;92430.34;;;22.85;43.11
59289;BME280;45056;47.602;9.886;2023-07-24T01:33:49;92462.34;;;22.86;43.74
59289;BME280;45056;47.602;9.886;2023-07-24T01:36:19;92465.31;;;22.88;44.24
59289;BME280;45056;47.602;9.886;2023-07-24T01:38:50;92506.16;;;22.88;44.46
59289;BME280;45056;47.602;9.886;2023-07-24T01:41:19;92509.47;;;22.86;44.19
59289;BME280;45056;47.602;9.886;2023-07-24T01:43:49;92542.22;;;22.88;43.37
59289;BME280;45056;47.602;9.886;2023-07-24T01:46:17;92606.00;;;22.88;43.54
59289;BME280;45056;47.602;9.886;2023-07-24T01:48:45;92608.03;;;22.87;44.25
59289;BME280;45056;47.602;9.886;2023-07-24T01:51:13;92578.81;;;22.86;44.99
59289;BME280;45056;47.602;9.886;2023-07-24T01:53:41;92564.31;;;22.80;45.61
59289;BME280;45056;47.602;9.886;2023-07-24T01:56:09;92546.47;;;22.75;46.00
59289;BME280;45056;47.602;9.886;2023-07-24T01:58:37;92540.06;;;22.67;46.64
59289;BME280;45056;47.602;9.886;2023-07-24T02:01:06;92534.63;;;22.61;46.89
59289;BME280;45056;47.602;9.886;2023-07-24T02:03:34;92529.91;;;22.56;47.13
59289;BME280;45056;47.602;9.886;2023-07-24T02:06:02;92511.03;;;22.55;47.31
59289;BME280;45056;47.602;9.886;2023-07-24T02:08:30;92489.91;;;22.52;47.47
59289;BME280;45056;47.602;9.886;2023-07-24T02:10:58;92481.94;;;22.48;47.54
59289;BME280;45056;47.602;9.886;2023-07-24T02:13:26;92472.88;;;22.47;47.81
59289;BME280;45056;47.602;9.886;2023-07-24T02:15:54;92473.38;;;22.46;47.86
59289;BME280;45056;47.602;9.886;2023-07-24T02:18:24;92471.38;;;22.46;48.04
59289;BME280;45056;47.602;9.886;2023-07-24T02:20:52;92464.59;;;22.42;48.09
59289;BME280;45056;47.602;9.886;2023-07-24T02:23:20;92458.41;;;22.36;48.32
59289;BME280;45056;47.602;9.886;2023-07-24T02:25:50;92453.81;;;22.25;48.71
59289;BME280;45056;47.602;9.886;2023-07-24T02:28:19;92460.75;;;22.18;48.78
59289;BME280;45056;47.602;9.886;2023-07-24T02:30:48;92455.50;;;22.14;48.88
59289;BME280;45056;47.602;9.886;2023-07-24T02:33:17;92451.75;;;22.12;49.02
59289;BME280;45056;47.602;9.886;2023-07-24T02:35:46;92451.03;;;22.11;49.51
59289;BME280;45056;47.602;9.886;2023-07-24T02:38:14;92449.84;;;22.07;49.76
59289;BME280;45056;47.602;9.886;2023-07-24T02:40:43;92448.69;;;22.02;49.83
59289;BME280;45056;47.602;9.886;2023-07-24T02:43:11;92440.22;;;21.94;49.89
59289;BME280;45056;47.602;9.886;2023-07-24T02:45:39;92431.06;;;21.86;50.06
59289;BME280;45056;47.602;9.886;2023-07-24T02:48:07;92429.84;;;21.81;50.29
59289;BME280;45056;47.602;9.886;2023-07-24T02:50:36;92429.63;;;21.79;50.20
59289;BME280;45056;47.602;9.886;2023-07-24T02:53:05;92423.13;;;21.76;50.48
59289;BME280;45056;47.602;9.886;2023-07-24T02:55:33;92415.38;;;21.75;50.33
59289;BME280;45056;47.602;9.886;2023-07-24T02:58:01;92424.41;;;21.75;50.21
59289;BME280;45056;47.602;9.886;2023-07-24T03:00:31;92419.63;;;21.76;50.00
59289;BME280;45056;47.602;9.886;2023-07-24T03:02:59;92427.94;;;21.76;49.86
59289;BME280;45056;47.602;9.886;2023-07-24T03:05:27;92427.94;;;21.76;49.86
59289;BME280;45056;47.602;9.886;2023-07-24T03:07:55;92424.41;;;21.75;49.98
59289;BME280;45056;47.602;9.886;2023-07-24T03:10:24;92418.88;;;21.75;49.80
59289;BME280;45056;47.602;9.886;2023-07-24T03:12:52;92416.09;;;21.75;49.71
59289;BME280;45056;47.602;9.886;2023-07-24T03:15:20;92410.56;;;21.75;49.76
59289;BME280;45056;47.602;9.886;2023-07-24T03:17:48;92412.06;;;21.76;49.58
59289;BME280;45056;47.602;9.886;2023-07-24T03:20:18;92402.25;;;21.75;49.57
59289;BME280;45056;47.602;9.886;2023-07-24T03:22:47;92400.03;;;21.74;49.45
59289;BME280;45056;47.602;9.886;2023-07-24T03:25:15;92399.81;;;21.72;49.69
59289;BME280;45056;47.602;9.886;2023-07-24T03:27:44;92395.00;;;21.72;49.48
59289;BME280;45056;47.602;9.886;2023-07-24T03:30:12;92410.34;;;21.73;49.29
59289;BME280;45056;47.602;9.886;2023-07-24T03:32:40;92418.13;;;21.75;49.07
59289;BME280;45056;47.602;9.886;2023-07-24T03:35:08;92422.41;;;21.76;49.28
59289;BME280;45056;47.602;9.886;2023-07-24T03:37:36;92425.91;;;21.76;49.10
59289;BME280;45056;47.602;9.886;2023-07-24T03:40:05;92431.97;;;21.75;49.17
59289;BME280;45056;47.602;9.886;2023-07-24T03:42:34;92439.53;;;21.74;49.20
59289;BME280;45056;47.602;9.886;2023-07-24T03:45:04;92435.47;;;21.75;49.15
59289;BME280;45056;47.602;9.886;2023-07-24T03:47:33;92427.16;;;21.75;49.25
59289;BME280;45056;47.602;9.886;2023-07-24T03:50:01;92411.84;;;21.74;49.31
59289;BME280;45056;47.602;9.886;2023-07-24T03:52:29;92402.56;;;21.72;49.50
59289;BME280;45056;47.602;9.886;2023-07-24T03:54:57;92395.34;;;21.69;49.46
59289;BME280;45056;47.602;9.886;2023-07-24T03:57:25;92392.31;;;21.67;49.71
59289;BME280;45056;47.602;9.886;2023-07-24T03:59:53;92382.53;;;21.66;49.66
59289;BME280;45056;47.602;9.886;2023-07-24T04:02:23;92382.28;;;21.63;49.80
59289;BME280;45056;47.602;9.886;2023-07-24T04:04:51;92380.06;;;21.62;49.81
59289;BME280;45056;47.602;9.886;2023-07-24T04:07:19;92381.53;;;21.63;49.54
59289;BME280;45056;47.602;9.886;2023-07-24T04:09:47;92392.09;;;21.65;49.75
59289;BME280;45056;47.602;9.886;2023-07-24T04:12:16;92379.75;;;21.66;49.53
59289;BME280;45056;47.602;9.886;2023-07-24T04:14:43;92389.03;;;21.68;49.75
59289;BME280;45056;47.602;9.886;2023-07-24T04:17:11;92391.59;;;21.66;49.71
59289;BME280;45056;47.602;9.886;2023-07-24T04:19:41;92379.75;;;21.66;49.51
59289;BME280;45056;47.602;9.886;2023-07-24T04:22:09;92369.66;;;21.68;49.18
59289;BME280;45056;47.602;9.886;2023-07-24T04:24:37;92364.34;;;21.70;49.12
59289;BME280;45056;47.602;9.886;2023-07-24T04:27:05;92361.06;;;21.72;49.14
59289;BME280;45056;47.602;9.886;2023-07-24T04:29:33;92360.50;;;21.73;48.64
59289;BME280;45056;47.602;9.886;2023-07-24T04:32:01;92372.56;;;21.76;48.91
59289;BME280;45056;47.602;9.886;2023-07-24T04:34:29;92369.25;;;21.77;48.68
59289;BME280;45056;47.602;9.886;2023-07-24T04:37:00;92371.72;;;21.81;48.51
59289;BME280;45056;47.602;9.886;2023-07-24T04:39:28;92371.63;;;21.87;48.46
59289;BME280;45056;47.602;9.886;2023-07-24T04:41:56;92373.00;;;21.94;48.50
59289;BME280;45056;47.602;9.886;2023-07-24T04:44:24;92381.22;;;21.99;48.16
59289;BME280;45056;47.602;9.886;2023-07-24T04:46:52;92384.13;;;22.07;48.21
59289;BME280;45056;47.602;9.886;2023-07-24T04:49:22;92372.63;;;22.16;47.78
59289;BME280;45056;47.602;9.886;2023-07-24T04:51:51;92379.78;;;22.25;47.37
59289;BME280;45056;47.602;9.886;2023-07-24T04:54:20;92375.28;;;22.36;47.38
59289;BME280;45056;47.602;9.886;2023-07-24T04:56:48;92362.28;;;22.44;47.13
59289;BME280;45056;47.602;9.886;2023-07-24T04:59:16;92366.69;;;22.53;47.05
59289;BME280;45056;47.602;9.886;2023-07-24T05:01:44;92357.72;;;22.60;47.25
59289;BME280;45056;47.602;9.886;2023-07-24T05:04:12;92369.47;;;22.66;47.68
59289;BME280;45056;47.602;9.886;2023-07-24T05:06:40;92364.75;;;22.74;47.83
59289;BME280;45056;47.602;9.886;2023-07-24T05:09:08;92363.13;;;22.92;47.67
59289;BME280;45056;47.602;9.886;2023-07-24T05:11:37;92352.81;;;23.14;47.00
59289;BME280;45056;47.602;9.886;2023-07-24T05:14:05;92344.91;;;23.18;46.66
59289;BME280;45056;47.602;9.886;2023-07-24T05:16:33;92339.88;;;23.17;47.30
59289;BME280;45056;47.602;9.886;2023-07-24T05:19:01;92343.06;;;23.21;47.57
59289;BME280;45056;47.602;9.886;2023-07-24T05:21:29;92335.06;;;23.52;47.49
59289;BME280;45056;47.602;9.886;2023-07-24T05:23:57;92320.94;;;23.63;47.29
59289;BME280;45056;47.602;9.886;2023-07-24T05:26:25;92314.97;;;23.81;46.60
59289;BME280;45056;47.602;9.886;2023-07-24T05:28:55;92323.84;;;24.66;45.05
59289;BME280;45056;47.602;9.886;2023-07-24T05:31:25;92328.81;;;25.72;42.51
59289;BME280;45056;47.602;9.886;2023-07-24T05:33:57;92333.81;;;26.20;41.37
59289;BME280;45056;47.602;9.886;2023-07-24T05:36:25;92342.38;;;26.30;40.47
59289;BME280;45056;47.602;9.886;2023-07-24T05:38:53;92363.94;;;26.22;39.98
59289;BME280;45056;47.602;9.886;2023-07-24T05:41:21;92388.06;;;25.96;40.22
59289;BME280;45056;47.602;9.886;2023-07-24T05:43:49;92428.72;;;25.68;40.42
59289;BME280;45056;47.602;9.886;2023-07-24T05:46:19;92447.88;;;25.35;40.34
59289;BME280;45056;47.602;9.886;2023-07-24T05:48:47;92473.00;;;25.06;40.34
59289;BME280;45056;47.602;9.886;2023-07-24T05:51:15;92506.38;;;24.77;40.54
59289;BME280;45056;47.602;9.886;2023-07-24T05:53:43;92594.41;;;24.53;42.41
59289;BME280;45056;47.602;9.886;2023-07-24T05:56:11;92654.16;;;24.25;48.42
59289;BME280;45056;47.602;9.886;2023-07-24T05:58:38;92668.53;;;23.62;52.44
59289;BME280;45056;47.602;9.886;2023-07-24T06:01:07;92668.22;;;22.92;55.37
59289;BME280;45056;47.602;9.886;2023-07-24T06:03:38;92682.66;;;22.33;57.68
59289;BME280;45056;47.602;9.886;2023-07-24T06:06:06;92692.75;;;21.93;59.41
59289;BME280;45056;47.602;9.886;2023-07-24T06:08:34;92683.84;;;21.56;60.15
59289;BME280;45056;47.602;9.886;2023-07-24T06:11:02;92676.56;;;21.28;60.97
59289;BME280;45056;47.602;9.886;2023-07-24T06:13:30;92675.00;;;21.08;61.45
59289;BME280;45056;47.602;9.886;2023-07-24T06:15:58;92651.81;;;20.86;61.71
59289;BME280;45056;47.602;9.886;2023-07-24T06:18:26;92656.66;;;20.74;61.75
59289;BME280;45056;47.602;9.886;2023-07-24T06:20:56;92651.94;;;20.69;61.79
59289;BME280;45056;47.602;9.886;2023-07-24T06:23:24;92651.50;;;20.59;61.98
59289;BME280;45056;47.602;9.886;2023-07-24T06:25:52;92658.78;;;20.56;62.08
59289;BME280;45056;47.602;9.886;2023-07-24T06:28:20;92645.72;;;20.57;62.11
59289;BME280;45056;47.602;9.886;2023-07-24T06:30:48;92639.97;;;20.55;62.21
59289;BME280;45056;47.602;9.886;2023-07-24T06:33:16;92615.13;;;20.49;62.00
59289;BME280;45056;47.602;9.886;2023-07-24T06:35:44;92589.81;;;20.45;62.21
59289;BME280;45056;47.602;9.886;2023-07-24T06:38:13;92589.06;;;20.44;62.41
59289;BME280;45056;47.602;9.886;2023-07-24T06:40:41;92582.00;;;20.43;62.18
59289;BME280;45056;47.602;9.886;2023-07-24T06:43:09;92589.09;;;20.39;62.32
59289;BME280;45056;47.602;9.886;2023-07-24T06:45:37;92596.69;;;20.32;62.68
59289;BME280;45056;47.602;9.886;2023-07-24T06:48:05;92611.03;;;20.25;63.43
59289;BME280;45056;47.602;9.886;2023-07-24T06:50:34;92592.72;;;20.22;63.87
59289;BME280;45056;47.602;9.886;2023-07-24T06:53:01;92582.75;;;20.13;63.81
59289;BME280;45056;47.602;9.886;2023-07-24T06:55:31;92556.44;;;20.07;63.88
59289;BME280;45056;47.602;9.886;2023-07-24T06:57:59;92493.44;;;20.05;63.81
59289;BME280;45056;47.602;9.886;2023-07-24T07:00:27;92476.63;;;20.03;64.21
59289;BME280;45056;47.602;9.886;2023-07-24T07:02:54;92523.06;;;20.04;64.38
59289;BME280;45056;47.602;9.886;2023-07-24T07:05:22;92524.81;;;20.08;64.20
59289;BME280;45056;47.602;9.886;2023-07-24T07:07:50;92530.84;;;20.06;64.43
59289;BME280;45056;47.602;9.886;2023-07-24T07:10:18;92535.66;;;20.00;65.06
59289;BME280;45056;47.602;9.886;2023-07-24T07:12:48;92529.91;;;19.92;65.67
59289;BME280;45056;47.602;9.886;2023-07-24T07:15:16;92496.59;;;19.84;65.64
59289;BME280;45056;47.602;9.886;2023-07-24T07:17:44;92483.31;;;19.77;65.66
59289;BME280;45056;47.602;9.886;2023-07-24T07:20:12;92472.34;;;19.71;65.77
59289;BME280;45056;47.602;9.886;2023-07-24T07:22:40;92472.63;;;19.62;66.10
59289;BME280;45056;47.602;9.886;2023-07-24T07:25:08;92464.13;;;19.60;66.22
59289;BME280;45056;47.602;9.886;2023-07-24T07:27:36;92457.31;;;19.67;65.59
59289;BME280;45056;47.602;9.886;2023-07-24T07:30:07;92466.28;;;19.73;65.21
59289;BME280;45056;47.602;9.886;2023-07-24T07:32:35;92473.50;;;19.82;64.96
59289;BME280;45056;47.602;9.886;2023-07-24T07:35:04;92476.75;;;19.92;64.99
59289;BME280;45056;47.602;9.886;2023-07-24T07:37:32;92480.97;;;19.98;64.51
59289;BME280;45056;47.602;9.886;2023-07-24T07:40:00;92464.34;;;20.04;64.61
59289;BME280;45056;47.602;9.886;2023-07-24T07:42:29;92466.06;;;20.07;64.46
59289;BME280;45056;47.602;9.886;2023-07-24T07:44:57;92470.28;;;20.14;64.70
59289;BME280;45056;47.602;9.886;2023-07-24T07:47:26;92462.19;;;20.22;64.53
59289;BME280;45056;47.602;9.886;2023-07-24T07:49:54;92458.09;;;20.28;64.68
59289;BME280;45056;47.602;9.886;2023-07-24T07:52:22;92470.81;;;20.37;63.92
59289;BME280;45056;47.602;9.886;2023-07-24T07:54:50;92470.78;;;20.43;63.43
59289;BME280;45056;47.602;9.886;2023-07-24T07:57:18;92467.88;;;20.54;63.51
59289;BME280;45056;47.602;9.886;2023-07-24T07:59:46;92456.72;;;20.66;63.33
59289;BME280;45056;47.602;9.886;2023-07-24T08:02:14;92460.84;;;20.78;63.69
59289;BME280;45056;47.602;9.886;2023-07-24T08:04:43;92458.72;;;20.90;63.27
59289;BME280;45056;47.602;9.886;2023-07-24T08:07:11;92452.56;;;21.03;62.30
59289;BME280;45056;47.602;9.886;2023-07-24T08:09:39;92459.19;;;21.13;62.20
59289;BME280;45056;47.602;9.886;2023-07-24T08:12:08;92457.88;;;21.20;61.01
59289;BME280;45056;47.602;9.886;2023-07-24T08:14:36;92445.47;;;21.27;60.75
59289;BME280;45056;47.602;9.886;2023-07-24T08:17:04;92434.31;;;21.32;59.84
59289;BME280;45056;47.602;9.886;2023-07-24T08:19:32;92429.47;;;21.39;60.09
59289;BME280;45056;47.602;9.886;2023-07-24T08:22:01;92442.47;;;21.44;60.00
59289;BME280;45056;47.602;9.886;2023-07-24T08:24:33;92439.38;;;21.47;60.19
59289;BME280;45056;47.602;9.886;2023-07-24T08:27:02;92446.63;;;21.51;59.90
59289;BME280;45056;47.602;9.886;2023-07-24T08:29:30;92436.53;;;21.53;60.34
59289;BME280;45056;47.602;9.886;2023-07-24T08:31:59;92435.03;;;21.52;60.70
59289;BME280;45056;47.602;9.886;2023-07-24T08:34:27;92446.34;;;21.54;61.13
59289;BME280;45056;47.602;9.886;2023-07-24T08:36:56;92454.63;;;21.54;61.15
59289;BME280;45056;47.602;9.886;2023-07-24T08:39:25;92442.84;;;21.54;61.23
59289;BME280;45056;47.602;9.886;2023-07-24T08:41:53;92438.53;;;21.53;61.02
59289;BME280;45056;47.602;9.886;2023-07-24T08:44:22;92427.47;;;21.53;60.89
59289;BME280;45056;47.602;9.886;2023-07-24T08:46:52;92395.03;;;21.53;60.72
59289;BME280;45056;47.602;9.886;2023-07-24T08:49:22;92393.53;;;21.52;60.18
59289;BME280;45056;47.602;9.886;2023-07-24T08:51:50;92377.16;;;21.54;60.26
59289;BME280;45056;47.602;9.886;2023-07-24T08:54:19;92369.50;;;21.60;60.13
59289;BME280;45056;47.602;9.886;2023-07-24T08:56:49;92336.50;;;21.62;59.55
59289;BME280;45056;47.602;9.886;2023-07-24T08:59:18;92321.94;;;21.62;59.76
59289;BME280;45056;47.602;9.886;2023-07-24T09:01:46;92322.16;;;21.64;59.85
59289;BME280;45056;47.602;9.886;2023-07-24T09:04:14;92327.06;;;21.71;60.24
59289;BME280;45056;47.602;9.886;2023-07-24T09:06:42;92323.88;;;21.81;60.35
59289;BME280;45056;47.602;9.886;2023-07-24T09:09:13;92330.31;;;21.89;60.42
59289;BME280;45056;47.602;9.886;2023-07-24T09:11:51;92341.69;;;21.99;60.14
59289;BME280;45056;47.602;9.886;2023-07-24T09:14:22;92339.47;;;22.11;59.69
59289;BME280;45056;47.602;9.886;2023-07-24T09:17:02;92345.03;;;22.24;59.67
59289;BME280;45056;47.602;9.886;2023-07-24T09:19:31;92341.81;;;22.33;59.64
59289;BME280;45056;47.602;9.886;2023-07-24T09:22:09;92329.56;;;22.42;58.66
59289;BME280;45056;47.602;9.886;2023-07-24T09:24:49;92331.41;;;22.53;58.00
59289;BME280;45056;47.602;9.886;2023-07-24T09:27:20;92332.97;;;22.62;58.05
59289;BME280;45056;47.602;9.886;2023-07-24T09:29:49;92329.22;;;22.73;58.08
59289;BME280;45056;47.602;9.886;2023-07-24T09:32:21;92330.28;;;22.83;57.34
59289;BME280;45056;47.602;9.886;2023-07-24T09:34:51;92335.38;;;22.92;57.19
59289;BME280;45056;47.602;9.886;2023-07-24T09:37:24;92339.41;;;23.05;56.40
59289;BME280;45056;47.602;9.886;2023-07-24T09:39:53;92333.00;;;23.10;56.04
59289;BME280;45056;47.602;9.886;2023-07-24T09:42:31;92333.81;;;23.18;55.80
59289;BME280;45056;47.602;9.886;2023-07-24T09:45:00;92316.53;;;23.26;54.56
59289;BME280;45056;47.602;9.886;2023-07-24T09:47:29;92304.22;;;23.34;54.02
59289;BME280;45056;47.602;9.886;2023-07-24T09:49:59;92302.25;;;23.43;53.59
59289;BME280;45056;47.602;9.886;2023-07-24T09:52:29;92288.25;;;23.48;53.51
59289;BME280;45056;47.602;9.886;2023-07-24T09:55:07;92284.78;;;23.56;53.10
59289;BME280;45056;47.602;9.886;2023-07-24T09:57:40;92277.03;;;23.62;52.64
59289;BME280;45056;47.602;9.886;2023-07-24T10:00:10;92280.63;;;23.70;52.38
59289;BME280;45056;47.602;9.886;2023-07-24T10:02:40;92286.44;;;23.80;51.89
59289;BME280;45056;47.602;9.886;2023-07-24T10:05:09;92280.94;;;23.88;50.89
59289;BME280;45056;47.602;9.886;2023-07-24T10:07:39;92275.97;;;23.94;50.09
59289;BME280;45056;47.602;9.886;2023-07-24T10:10:08;92268.22;;;24.00;50.50
59289;BME280;45056;47.602;9.886;2023-07-24T10:12:38;92266.09;;;24.06;51.67
59289;BME280;45056;47.602;9.886;2023-07-24T10:15:08;92265.38;;;24.14;52.60
59289;BME280;45056;47.602;9.886;2023-07-24T10:17:38;92256.16;;;24.19;54.77
59289;BME280;45056;47.602;9.886;2023-07-24T10:20:10;92258.78;;;24.25;55.97
59289;BME280;45056;47.602;9.886;2023-07-24T10:22:41;92244.72;;;24.30;56.53
59289;BME280;45056;47.602;9.886;2023-07-24T10:25:11;92240.47;;;24.37;56.04
59289;BME280;45056;47.602;9.886;2023-07-24T10:27:42;92243.13;;;24.43;54.41
59289;BME280;45056;47.602;9.886;2023-07-24T10:30:11;92249.78;;;24.47;52.78
59289;BME280;45056;47.602;9.886;2023-07-24T10:32:45;92243.88;;;24.51;51.48
59289;BME280;45056;47.602;9.886;2023-07-24T10:35:14;92246.31;;;24.55;51.22
59289;BME280;45056;47.602;9.886;2023-07-24T10:37:44;92235.56;;;24.59;50.77
59289;BME280;45056;47.602;9.886;2023-07-24T10:40:19;92243.72;;;24.64;52.24
59289;BME280;45056;47.602;9.886;2023-07-24T10:43:00;92241.91;;;24.67;53.43
59289;BME280;45056;47.602;9.886;2023-07-24T10:45:39;92235.78;;;24.69;55.12
59289;BME280;45056;47.602;9.886;2023-07-24T10:48:14;92241.34;;;24.69;55.49
59289;BME280;45056;47.602;9.886;2023-07-24T10:50:43;92248.22;;;24.68;55.87
59289;BME280;45056;47.602;9.886;2023-07-24T10:53:14;92262.47;;;24.64;55.47
59289;BME280;45056;47.602;9.886;2023-07-24T10:55:44;92258.53;;;24.59;55.78
59289;BME280;45056;47.602;9.886;2023-07-24T10:58:15;92260.75;;;24.53;56.16
59289;BME280;45056;47.602;9.886;2023-07-24T11:00:44;92281.13;;;24.48;56.16
59289;BME280;45056;47.602;9.886;2023-07-24T11:03:14;92312.41;;;24.41;55.93
59289;BME280;45056;47.602;9.886;2023-07-24T11:05:43;92318.47;;;24.31;55.71
59289;BME280;45056;47.602;9.886;2023-07-24T11:08:14;92298.03;;;24.21;55.29
59289;BME280;45056;47.602;9.886;2023-07-24T11:10:48;92291.50;;;24.11;55.36
59289;BME280;45056;47.602;9.886;2023-07-24T11:13:20;92308.31;;;24.05;55.72
59289;BME280;45056;47.602;9.886;2023-07-24T11:15:50;92330.88;;;24.01;56.21
59289;BME280;45056;47.602;9.886;2023-07-24T11:18:20;92341.56;;;23.97;56.96
59289;BME280;45056;47.602;9.886;2023-07-24T11:20:54;92354.13;;;23.90;57.20
59289;BME280;45056;47.602;9.886;2023-07-24T11:23:24;92333.72;;;23.88;57.52
59289;BME280;45056;47.602;9.886;2023-07-24T11:25:53;92354.66;;;23.89;58.27
59289;BME280;45056;47.602;9.886;2023-07-24T11:28:23;92359.47;;;23.88;58.89
59289;BME280;45056;47.602;9.886;2023-07-24T11:30:51;92367.56;;;23.86;59.03
59289;BME280;45056;47.602;9.886;2023-07-24T11:33:20;92370.09;;;23.76;58.80
59289;BME280;45056;47.602;9.886;2023-07-24T11:35:48;92387.03;;;23.65;58.89
59289;BME280;45056;47.602;9.886;2023-07-24T11:38:17;92397.13;;;23.55;59.39
59289;BME280;45056;47.602;9.886;2023-07-24T11:40:45;92441.03;;;23.43;59.35
59289;BME280;45056;47.602;9.886;2023-07-24T11:43:18;92475.09;;;23.30;59.14
59289;BME280;45056;47.602;9.886;2023-07-24T11:45:50;92480.66;;;23.16;59.47
59289;BME280;45056;47.602;9.886;2023-07-24T11:48:21;92481.63;;;23.05;58.58
59289;BME280;45056;47.602;9.886;2023-07-24T11:50:53;92442.78;;;22.92;59.09
59289;BME280;45056;47.602;9.886;2023-07-24T11:53:25;92391.31;;;22.83;59.18
59289;BME280;45056;47.602;9.886;2023-07-24T11:55:56;92455.94;;;22.78;60.01
59289;BME280;45056;47.602;9.886;2023-07-24T11:58:26;92502.19;;;22.70;60.74
59289;BME280;45056;47.602;9.886;2023-07-24T12:00:56;92490.78;;;22.60;61.19
59289;BME280;45056;47.602;9.886;2023-07-24T12:03:26;92464.03;;;22.49;61.33
59289;BME280;45056;47.602;9.886;2023-07-24T12:05:56;92452.03;;;22.41;61.93
59289;BME280;45056;47.602;9.886;2023-07-24T12:08:31;92474.84;;;22.33;62.45
59289;BME280;45056;47.602;9.886;2023-07-24T12:11:01;92541.41;;;22.28;63.02
59289;BME280;45056;47.602;9.886;2023-07-24T12:13:30;92619.94;;;22.17;63.22
59289;BME280;45056;47.602;9.886;2023-07-24T12:16:00;92638.78;;;21.99;63.84
59289;BME280;45056;47.602;9.886;2023-07-24T12:18:28;92583.63;;;21.82;64.34
59289;BME280;45056;47.602;9.886;2023-07-24T12:20:56;92531.53;;;21.61;62.81
59289;BME280;45056;47.602;9.886;2023-07-24T12:23:24;92488.06;;;21.37;61.29
59289;BME280;45056;47.602;9.886;2023-07-24T12:25:52;92446.50;;;21.24;61.30
59289;BME280;45056;47.602;9.886;2023-07-24T12:28:20;92420.19;;;21.17;61.88
59289;BME280;45056;47.602;9.886;2023-07-24T12:30:48;92432.00;;;21.17;62.04
59289;BME280;45056;47.602;9.886;2023-07-24T12:33:17;92442.97;;;21.23;62.41
59289;BME280;45056;47.602;9.886;2023-07-24T12:35:50;92444.47;;;21.24;61.33
59289;BME280;45056;47.602;9.886;2023-07-24T12:38:19;92429.38;;;21.25;60.91
59289;BME280;45056;47.602;9.886;2023-07-24T12:40:47;92430.88;;;21.26;60.95
59289;BME280;45056;47.602;9.886;2023-07-24T12:43:15;92408.66;;;21.32;60.05
59289;BME280;45056;47.602;9.886;2023-07-24T12:45:43;92363.78;;;21.39;58.53
59289;BME280;45056;47.602;9.886;2023-07-24T12:48:11;92338.47;;;21.48;59.28
59289;BME280;45056;47.602;9.886;2023-07-24T12:50:41;92330.09;;;21.54;58.94
59289;BME280;45056;47.602;9.886;2023-07-24T12:53:09;92322.78;;;21.57;59.06
59289;BME280;45056;47.602;9.886;2023-07-24T12:55:37;92327.25;;;21.60;59.27
59289;BME280;45056;47.602;9.886;2023-07-24T12:58:05;92333.66;;;21.68;60.17
59289;BME280;45056;47.602;9.886;2023-07-24T13:00:33;92339.84;;;21.74;61.22
59289;BME280;45056;47.602;9.886;2023-07-24T13:03:01;92342.63;;;21.74;62.63
59289;BME280;45056;47.602;9.886;2023-07-24T13:05:29;92355.94;;;21.76;62.88
59289;BME280;45056;47.602;9.886;2023-07-24T13:07:58;92372.84;;;21.72;62.22
59289;BME280;45056;47.602;9.886;2023-07-24T13:10:27;92371.81;;;21.75;61.29